sensor_id;sensor_type;location;lat;lon;timestamp;temperature;humidity
4985;DHT22;2509;49.902;8.600;2022-12-10T00:00:36;1.80;99.90
4985;DHT22;2509;49.902;8.600;2022-12-10T00:03:38;1.70;99.90
4985;DHT22;2509;49.902;8.600;2022-12-10T00:06:41;1.80;99.90
4985;DHT22;2509;49.902;8.600;2022-12-10T00:09:43;1.70;99.90
4985;DHT22;2509;49.902;8.600;2022-12-10T00:12:44;1.70;99.90
4985;DHT22;2509;49.902;8.600;2022-12-10T00:15:48;1.70;99.90
4985;DHT22;2509;49.902;8.600;2022-12-10T00:18:51;1.70;99.90
4985;DHT22;2509;49.902;8.600;2022-12-10T00:21:52;1.70;99.90
4985;DHT22;2509;49.902;8.600;2022-12-10T00:24:54;1.70;99.90
4985;DHT22;2509;49.902;8.600;2022-12-10T00:27:56;1.70;99.90
4985;DHT22;2509;49.902;8.600;2022-12-10T00:31:03;1.70;99.90
4985;DHT22;2509;49.902;8.600;2022-12-10T00:34:07;1.70;99.90
4985;DHT22;2509;49.902;8.600;2022-12-10T00:37:09;1.70;99.90
4985;DHT22;2509;49.902;8.600;2022-12-10T00:40:11;1.70;99.90
4985;DHT22;2509;49.902;8.600;2022-12-10T00:43:13;1.70;99.90
4985;DHT22;2509;49.902;8.600;2022-12-10T00:46:18;1.70;99.90
4985;DHT22;2509;49.902;8.600;2022-12-10T00:49:20;1.70;99.90
4985;DHT22;2509;49.902;8.600;2022-12-10T00:52:23;1.70;99.90
4985;DHT22;2509;49.902;8.600;2022-12-10T00:55:25;1.60;99.90
4985;DHT22;2509;49.902;8.600;2022-12-10T00:58:28;1.60;99.90
4985;DHT22;2509;49.902;8.600;2022-12-10T01:01:33;1.50;99.90
4985;DHT22;2509;49.902;8.600;2022-12-10T01:04:35;1.50;99.90
4985;DHT22;2509;49.902;8.600;2022-12-10T01:07:37;1.50;99.90
4985;DHT22;2509;49.902;8.600;2022-12-10T01:10:39;1.50;99.90
4985;DHT22;2509;49.902;8.600;2022-12-10T01:13:42;1.50;99.90
4985;DHT22;2509;49.902;8.600;2022-12-10T01:16:45;1.50;99.90
4985;DHT22;2509;49.902;8.600;2022-12-10T01:19:47;1.50;99.90
4985;DHT22;2509;49.902;8.600;2022-12-10T01:22:49;1.60;99.90
4985;DHT22;2509;49.902;8.600;2022-12-10T01:25:51;1.50;99.90
4985;DHT22;2509;49.902;8.600;2022-12-10T01:28:53;1.60;99.90
4985;DHT22;2509;49.902;8.600;2022-12-10T01:31:57;1.60;99.90
4985;DHT22;2509;49.902;8.600;2022-12-10T01:34:59;1.50;99.90
4985;DHT22;2509;49.902;8.600;2022-12-10T01:38:00;1.50;99.90
4985;DHT22;2509;49.902;8.600;2022-12-10T01:41:03;1.50;99.90
4985;DHT22;2509;49.902;8.600;2022-12-10T01:47:46;1.50;99.90
4985;DHT22;2509;49.902;8.600;2022-12-10T01:50:48;1.50;99.90
4985;DHT22;2509;49.902;8.600;2022-12-10T01:53:50;1.40;99.90
4985;DHT22;2509;49.902;8.600;2022-12-10T01:56:58;1.40;99.90
4985;DHT22;2509;49.902;8.600;2022-12-10T02:00:02;1.40;99.90
4985;DHT22;2509;49.902;8.600;2022-12-10T02:03:13;1.40;99.90
4985;DHT22;2509;49.902;8.600;2022-12-10T02:06:30;1.40;99.90
4985;DHT22;2509;49.902;8.600;2022-12-10T02:09:37;1.30;99.90
4985;DHT22;2509;49.902;8.600;2022-12-10T02:12:45;1.30;99.90
4985;DHT22;2509;49.902;8.600;2022-12-10T02:15:51;1.30;99.90
4985;DHT22;2509;49.902;8.600;2022-12-10T02:19:00;1.30;99.90
4985;DHT22;2509;49.902;8.600;2022-12-10T02:22:05;1.30;99.90
4985;DHT22;2509;49.902;8.600;2022-12-10T02:25:09;1.40;99.90
4985;DHT22;2509;49.902;8.600;2022-12-10T02:28:19;1.30;99.90
4985;DHT22;2509;49.902;8.600;2022-12-10T02:31:27;1.30;99.90
4985;DHT22;2509;49.902;8.600;2022-12-10T02:34:34;1.30;99.90
4985;DHT22;2509;49.902;8.600;2022-12-10T02:37:39;1.30;99.90
4985;DHT22;2509;49.902;8.600;2022-12-10T02:40:43;1.30;99.90
4985;DHT22;2509;49.902;8.600;2022-12-10T02:43:48;1.30;99.90
4985;DHT22;2509;49.902;8.600;2022-12-10T02:46:54;1.30;99.90
4985;DHT22;2509;49.902;8.600;2022-12-10T02:49:58;1.30;99.90
4985;DHT22;2509;49.902;8.600;2022-12-10T02:53:00;1.30;99.90
4985;DHT22;2509;49.902;8.600;2022-12-10T02:56:12;1.30;99.90
4985;DHT22;2509;49.902;8.600;2022-12-10T02:59:19;1.30;99.90
4985;DHT22;2509;49.902;8.600;2022-12-10T03:02:31;1.30;99.90
4985;DHT22;2509;49.902;8.600;2022-12-10T03:05:42;1.30;99.90
4985;DHT22;2509;49.902;8.600;2022-12-10T03:08:49;1.30;99.90
4985;DHT22;2509;49.902;8.600;2022-12-10T03:11:57;1.30;99.90
4985;DHT22;2509;49.902;8.600;2022-12-10T03:15:02;1.30;99.90
4985;DHT22;2509;49.902;8.600;2022-12-10T03:18:08;1.30;99.90
4985;DHT22;2509;49.902;8.600;2022-12-10T03:21:11;1.30;99.90
4985;DHT22;2509;49.902;8.600;2022-12-10T03:24:14;1.40;99.90
4985;DHT22;2509;49.902;8.600;2022-12-10T03:27:19;1.30;99.90
4985;DHT22;2509;49.902;8.600;2022-12-10T03:30:22;1.30;99.90
4985;DHT22;2509;49.902;8.600;2022-12-10T03:33:26;1.30;99.90
4985;DHT22;2509;49.902;8.600;2022-12-10T03:36:29;1.30;99.90
4985;DHT22;2509;49.902;8.600;2022-12-10T03:39:32;1.30;99.90
4985;DHT22;2509;49.902;8.600;2022-12-10T03:42:35;1.30;99.90
4985;DHT22;2509;49.902;8.600;2022-12-10T03:45:37;1.30;99.90
4985;DHT22;2509;49.902;8.600;2022-12-10T03:48:41;1.40;99.90
4985;DHT22;2509;49.902;8.600;2022-12-10T03:51:43;1.40;99.90
4985;DHT22;2509;49.902;8.600;2022-12-10T03:54:45;1.40;99.90
4985;DHT22;2509;49.902;8.600;2022-12-10T03:57:46;1.40;99.90
4985;DHT22;2509;49.902;8.600;2022-12-10T04:00:48;1.40;99.90
4985;DHT22;2509;49.902;8.600;2022-12-10T04:03:51;1.40;99.90
4985;DHT22;2509;49.902;8.600;2022-12-10T04:06:53;1.30;99.90
4985;DHT22;2509;49.902;8.600;2022-12-10T04:09:55;1.30;99.90
4985;DHT22;2509;49.902;8.600;2022-12-10T04:12:56;1.30;99.90
4985;DHT22;2509;49.902;8.600;2022-12-10T04:16:16;1.30;99.90
4985;DHT22;2509;49.902;8.600;2022-12-10T04:19:31;1.30;99.90
4985;DHT22;2509;49.902;8.600;2022-12-10T04:22:33;1.30;99.90
4985;DHT22;2509;49.902;8.600;2022-12-10T04:25:52;1.30;99.90
4985;DHT22;2509;49.902;8.600;2022-12-10T04:29:12;1.30;99.90
4985;DHT22;2509;49.902;8.600;2022-12-10T04:32:14;1.30;99.90
4985;DHT22;2509;49.902;8.600;2022-12-10T04:35:18;1.20;99.90
4985;DHT22;2509;49.902;8.600;2022-12-10T04:38:19;1.30;99.90
4985;DHT22;2509;49.902;8.600;2022-12-10T04:41:21;1.20;99.90
4985;DHT22;2509;49.902;8.600;2022-12-10T04:44:23;1.20;99.90
4985;DHT22;2509;49.902;8.600;2022-12-10T04:47:24;1.10;99.90
4985;DHT22;2509;49.902;8.600;2022-12-10T04:50:28;1.10;99.90
4985;DHT22;2509;49.902;8.600;2022-12-10T04:53:29;1.10;99.90
4985;DHT22;2509;49.902;8.600;2022-12-10T04:56:32;1.10;99.90
4985;DHT22;2509;49.902;8.600;2022-12-10T04:59:34;1.10;99.90
4985;DHT22;2509;49.902;8.600;2022-12-10T05:02:36;1.10;99.90
4985;DHT22;2509;49.902;8.600;2022-12-10T05:05:39;1.10;99.90
4985;DHT22;2509;49.902;8.600;2022-12-10T05:08:42;1.20;99.90
4985;DHT22;2509;49.902;8.600;2022-12-10T05:11:43;1.10;99.90
4985;DHT22;2509;49.902;8.600;2022-12-10T05:14:45;1.10;99.90
4985;DHT22;2509;49.902;8.600;2022-12-10T05:17:47;1.10;99.90
4985;DHT22;2509;49.902;8.600;2022-12-10T05:20:50;1.10;99.90
4985;DHT22;2509;49.902;8.600;2022-12-10T05:23:52;1.00;99.90
4985;DHT22;2509;49.902;8.600;2022-12-10T05:26:53;1.00;99.90
4985;DHT22;2509;49.902;8.600;2022-12-10T05:29:55;1.00;99.90
4985;DHT22;2509;49.902;8.600;2022-12-10T05:32:56;1.00;99.90
4985;DHT22;2509;49.902;8.600;2022-12-10T05:36:02;1.00;99.90
4985;DHT22;2509;49.902;8.600;2022-12-10T05:39:05;1.00;99.90
4985;DHT22;2509;49.902;8.600;2022-12-10T05:42:07;1.00;99.90
4985;DHT22;2509;49.902;8.600;2022-12-10T05:45:09;1.00;99.90
4985;DHT22;2509;49.902;8.600;2022-12-10T05:48:12;1.00;99.90
4985;DHT22;2509;49.902;8.600;2022-12-10T05:51:17;1.00;99.90
4985;DHT22;2509;49.902;8.600;2022-12-10T05:54:19;1.00;99.90
4985;DHT22;2509;49.902;8.600;2022-12-10T05:57:21;1.00;99.90
4985;DHT22;2509;49.902;8.600;2022-12-10T06:00:23;1.00;99.90
4985;DHT22;2509;49.902;8.600;2022-12-10T06:03:26;0.90;99.90
4985;DHT22;2509;49.902;8.600;2022-12-10T06:06:32;0.90;99.90
4985;DHT22;2509;49.902;8.600;2022-12-10T06:09:34;0.90;99.90
4985;DHT22;2509;49.902;8.600;2022-12-10T06:12:36;0.80;99.90
4985;DHT22;2509;49.902;8.600;2022-12-10T06:15:39;0.70;99.90
4985;DHT22;2509;49.902;8.600;2022-12-10T06:18:41;0.70;99.90
4985;DHT22;2509;49.902;8.600;2022-12-10T06:21:45;0.70;99.90
4985;DHT22;2509;49.902;8.600;2022-12-10T06:24:46;0.60;99.90
4985;DHT22;2509;49.902;8.600;2022-12-10T06:27:48;0.50;99.90
4985;DHT22;2509;49.902;8.600;2022-12-10T06:30:50;0.50;99.90
4985;DHT22;2509;49.902;8.600;2022-12-10T06:33:52;0.40;99.90
4985;DHT22;2509;49.902;8.600;2022-12-10T06:36:55;0.40;99.90
4985;DHT22;2509;49.902;8.600;2022-12-10T06:39:57;0.40;99.90
4985;DHT22;2509;49.902;8.600;2022-12-10T06:42:59;0.30;99.90
4985;DHT22;2509;49.902;8.600;2022-12-10T06:46:04;0.30;99.90
4985;DHT22;2509;49.902;8.600;2022-12-10T06:49:07;0.30;99.90
4985;DHT22;2509;49.902;8.600;2022-12-10T06:52:10;0.30;99.90
4985;DHT22;2509;49.902;8.600;2022-12-10T06:55:12;0.20;99.90
4985;DHT22;2509;49.902;8.600;2022-12-10T06:58:13;0.20;99.90
4985;DHT22;2509;49.902;8.600;2022-12-10T07:01:17;0.20;99.90
4985;DHT22;2509;49.902;8.600;2022-12-10T07:04:20;0.20;99.90
4985;DHT22;2509;49.902;8.600;2022-12-10T07:07:23;0.30;99.90
4985;DHT22;2509;49.902;8.600;2022-12-10T07:10:25;0.30;99.90
4985;DHT22;2509;49.902;8.600;2022-12-10T07:13:26;0.30;99.90
4985;DHT22;2509;49.902;8.600;2022-12-10T07:16:29;0.40;99.90
4985;DHT22;2509;49.902;8.600;2022-12-10T07:19:32;0.40;99.90
4985;DHT22;2509;49.902;8.600;2022-12-10T07:22:35;0.40;99.90
4985;DHT22;2509;49.902;8.600;2022-12-10T07:25:37;0.50;99.90
4985;DHT22;2509;49.902;8.600;2022-12-10T07:28:39;0.50;99.90
4985;DHT22;2509;49.902;8.600;2022-12-10T07:31:41;0.50;99.90
4985;DHT22;2509;49.902;8.600;2022-12-10T07:34:43;0.50;99.90
4985;DHT22;2509;49.902;8.600;2022-12-10T07:37:46;0.50;99.90
4985;DHT22;2509;49.902;8.600;2022-12-10T07:40:48;0.50;99.90
4985;DHT22;2509;49.902;8.600;2022-12-10T07:43:50;0.60;99.90
4985;DHT22;2509;49.902;8.600;2022-12-10T07:46:53;0.60;99.90
4985;DHT22;2509;49.902;8.600;2022-12-10T07:49:55;0.60;99.90
4985;DHT22;2509;49.902;8.600;2022-12-10T07:52:58;0.60;99.90
4985;DHT22;2509;49.902;8.600;2022-12-10T07:56:00;0.70;99.90
4985;DHT22;2509;49.902;8.600;2022-12-10T07:59:02;0.70;99.90
4985;DHT22;2509;49.902;8.600;2022-12-10T08:02:04;0.70;99.90
4985;DHT22;2509;49.902;8.600;2022-12-10T08:05:06;0.70;99.90
4985;DHT22;2509;49.902;8.600;2022-12-10T08:08:10;0.70;99.90
4985;DHT22;2509;49.902;8.600;2022-12-10T08:11:12;0.80;99.90
4985;DHT22;2509;49.902;8.600;2022-12-10T08:14:14;0.80;99.90
4985;DHT22;2509;49.902;8.600;2022-12-10T08:17:23;0.90;99.90
4985;DHT22;2509;49.902;8.600;2022-12-10T08:20:33;0.90;99.90
4985;DHT22;2509;49.902;8.600;2022-12-10T08:23:36;0.90;99.90
4985;DHT22;2509;49.902;8.600;2022-12-10T08:26:37;1.00;99.90
4985;DHT22;2509;49.902;8.600;2022-12-10T08:29:39;1.00;99.90
4985;DHT22;2509;49.902;8.600;2022-12-10T08:32:41;1.00;99.90
4985;DHT22;2509;49.902;8.600;2022-12-10T08:35:43;1.10;99.90
4985;DHT22;2509;49.902;8.600;2022-12-10T08:38:46;1.10;99.90
4985;DHT22;2509;49.902;8.600;2022-12-10T08:41:48;1.10;99.90
4985;DHT22;2509;49.902;8.600;2022-12-10T08:44:49;1.10;99.90
4985;DHT22;2509;49.902;8.600;2022-12-10T08:47:51;1.10;99.90
4985;DHT22;2509;49.902;8.600;2022-12-10T08:50:53;1.20;99.90
4985;DHT22;2509;49.902;8.600;2022-12-10T08:53:56;1.30;99.90
4985;DHT22;2509;49.902;8.600;2022-12-10T08:56:58;1.20;99.90
4985;DHT22;2509;49.902;8.600;2022-12-10T09:00:00;1.20;99.90
4985;DHT22;2509;49.902;8.600;2022-12-10T09:03:02;1.30;99.90
4985;DHT22;2509;49.902;8.600;2022-12-10T09:06:04;1.30;99.90
4985;DHT22;2509;49.902;8.600;2022-12-10T09:09:08;1.40;99.90
4985;DHT22;2509;49.902;8.600;2022-12-10T09:12:09;1.40;99.90
4985;DHT22;2509;49.902;8.600;2022-12-10T09:15:11;1.40;99.90
4985;DHT22;2509;49.902;8.600;2022-12-10T09:18:13;1.50;99.90
4985;DHT22;2509;49.902;8.600;2022-12-10T09:21:16;1.50;99.90
4985;DHT22;2509;49.902;8.600;2022-12-10T09:24:20;1.50;99.90
4985;DHT22;2509;49.902;8.600;2022-12-10T09:27:22;1.50;99.90
4985;DHT22;2509;49.902;8.600;2022-12-10T09:30:23;1.60;99.90
4985;DHT22;2509;49.902;8.600;2022-12-10T09:33:25;1.60;99.90
4985;DHT22;2509;49.902;8.600;2022-12-10T09:36:27;1.70;99.90
4985;DHT22;2509;49.902;8.600;2022-12-10T09:39:30;1.70;99.90
4985;DHT22;2509;49.902;8.600;2022-12-10T09:42:41;1.70;99.90
4985;DHT22;2509;49.902;8.600;2022-12-10T09:45:52;1.80;99.90
4985;DHT22;2509;49.902;8.600;2022-12-10T09:49:03;1.80;99.90
4985;DHT22;2509;49.902;8.600;2022-12-10T09:52:12;1.80;99.90
4985;DHT22;2509;49.902;8.600;2022-12-10T09:55:18;1.90;99.90
4985;DHT22;2509;49.902;8.600;2022-12-10T09:58:22;2.00;99.90
4985;DHT22;2509;49.902;8.600;2022-12-10T10:01:27;2.10;99.90
4985;DHT22;2509;49.902;8.600;2022-12-10T10:04:29;2.20;99.90
4985;DHT22;2509;49.902;8.600;2022-12-10T10:07:32;2.30;99.90
4985;DHT22;2509;49.902;8.600;2022-12-10T10:10:37;2.40;99.90
4985;DHT22;2509;49.902;8.600;2022-12-10T10:13:40;2.50;99.90
4985;DHT22;2509;49.902;8.600;2022-12-10T10:16:45;2.70;99.90
4985;DHT22;2509;49.902;8.600;2022-12-10T10:19:49;2.70;99.90
4985;DHT22;2509;49.902;8.600;2022-12-10T10:22:51;2.80;99.90
4985;DHT22;2509;49.902;8.600;2022-12-10T10:25:56;2.90;99.90
4985;DHT22;2509;49.902;8.600;2022-12-10T10:29:00;2.90;99.90
4985;DHT22;2509;49.902;8.600;2022-12-10T10:32:13;2.80;99.90
4985;DHT22;2509;49.902;8.600;2022-12-10T10:35:28;2.70;99.90
4985;DHT22;2509;49.902;8.600;2022-12-10T10:38:30;2.70;99.90
4985;DHT22;2509;49.902;8.600;2022-12-10T10:41:37;2.70;99.90
4985;DHT22;2509;49.902;8.600;2022-12-10T10:44:41;2.60;99.90
4985;DHT22;2509;49.902;8.600;2022-12-10T10:47:43;2.60;99.90
4985;DHT22;2509;49.902;8.600;2022-12-10T10:50:47;2.60;99.90
4985;DHT22;2509;49.902;8.600;2022-12-10T10:53:50;2.50;99.90
4985;DHT22;2509;49.902;8.600;2022-12-10T10:56:54;2.50;99.90
4985;DHT22;2509;49.902;8.600;2022-12-10T11:03:22;2.40;99.90
4985;DHT22;2509;49.902;8.600;2022-12-10T11:06:24;2.40;99.90
4985;DHT22;2509;49.902;8.600;2022-12-10T11:09:28;2.40;99.90
4985;DHT22;2509;49.902;8.600;2022-12-10T11:12:36;2.40;99.90
4985;DHT22;2509;49.902;8.600;2022-12-10T11:15:40;2.40;99.90
4985;DHT22;2509;49.902;8.600;2022-12-10T11:18:43;2.40;99.90
4985;DHT22;2509;49.902;8.600;2022-12-10T11:21:52;2.40;99.90
4985;DHT22;2509;49.902;8.600;2022-12-10T11:24:54;2.50;99.90
4985;DHT22;2509;49.902;8.600;2022-12-10T11:28:00;2.50;99.90
4985;DHT22;2509;49.902;8.600;2022-12-10T11:31:18;2.60;99.90
4985;DHT22;2509;49.902;8.600;2022-12-10T11:34:34;2.70;99.90
4985;DHT22;2509;49.902;8.600;2022-12-10T11:37:39;2.80;99.90
4985;DHT22;2509;49.902;8.600;2022-12-10T11:40:47;2.80;99.90
4985;DHT22;2509;49.902;8.600;2022-12-10T11:44:11;2.80;99.90
4985;DHT22;2509;49.902;8.600;2022-12-10T11:47:39;2.90;99.90
4985;DHT22;2509;49.902;8.600;2022-12-10T11:50:48;2.90;99.90
4985;DHT22;2509;49.902;8.600;2022-12-10T11:54:00;3.00;99.90
4985;DHT22;2509;49.902;8.600;2022-12-10T11:57:12;3.10;99.90
4985;DHT22;2509;49.902;8.600;2022-12-10T12:00:19;3.10;99.90
4985;DHT22;2509;49.902;8.600;2022-12-10T12:03:46;3.20;99.90
4985;DHT22;2509;49.902;8.600;2022-12-10T12:07:05;3.20;99.90
4985;DHT22;2509;49.902;8.600;2022-12-10T12:10:40;3.10;99.90
4985;DHT22;2509;49.902;8.600;2022-12-10T12:13:52;3.10;99.90
4985;DHT22;2509;49.902;8.600;2022-12-10T12:17:03;3.10;99.90
4985;DHT22;2509;49.902;8.600;2022-12-10T12:20:16;3.00;99.90
4985;DHT22;2509;49.902;8.600;2022-12-10T12:23:23;3.00;99.90
4985;DHT22;2509;49.902;8.600;2022-12-10T12:26:28;3.00;99.90
4985;DHT22;2509;49.902;8.600;2022-12-10T12:29:34;2.90;99.90
4985;DHT22;2509;49.902;8.600;2022-12-10T12:32:45;2.90;99.90
4985;DHT22;2509;49.902;8.600;2022-12-10T12:35:50;3.00;99.90
4985;DHT22;2509;49.902;8.600;2022-12-10T12:38:56;3.00;99.90
4985;DHT22;2509;49.902;8.600;2022-12-10T12:42:09;2.90;99.90
4985;DHT22;2509;49.902;8.600;2022-12-10T12:45:16;3.00;99.90
4985;DHT22;2509;49.902;8.600;2022-12-10T12:48:26;2.90;99.90
4985;DHT22;2509;49.902;8.600;2022-12-10T12:51:33;2.90;99.90
4985;DHT22;2509;49.902;8.600;2022-12-10T12:54:36;2.90;99.90
4985;DHT22;2509;49.902;8.600;2022-12-10T12:57:43;2.90;99.90
4985;DHT22;2509;49.902;8.600;2022-12-10T13:00:48;2.90;99.90
4985;DHT22;2509;49.902;8.600;2022-12-10T13:03:53;3.00;99.90
4985;DHT22;2509;49.902;8.600;2022-12-10T13:07:27;3.00;99.90
4985;DHT22;2509;49.902;8.600;2022-12-10T13:10:29;3.00;99.90
4985;DHT22;2509;49.902;8.600;2022-12-10T13:13:33;3.10;99.90
4985;DHT22;2509;49.902;8.600;2022-12-10T13:16:43;3.30;99.90
4985;DHT22;2509;49.902;8.600;2022-12-10T13:19:49;3.30;99.90
4985;DHT22;2509;49.902;8.600;2022-12-10T13:22:55;3.30;99.90
4985;DHT22;2509;49.902;8.600;2022-12-10T13:26:00;3.30;99.90
4985;DHT22;2509;49.902;8.600;2022-12-10T13:29:19;3.20;99.90
4985;DHT22;2509;49.902;8.600;2022-12-10T13:32:41;3.20;99.90
4985;DHT22;2509;49.902;8.600;2022-12-10T13:35:56;3.10;99.90
4985;DHT22;2509;49.902;8.600;2022-12-10T13:39:19;3.10;99.90
4985;DHT22;2509;49.902;8.600;2022-12-10T13:42:30;3.20;99.90
4985;DHT22;2509;49.902;8.600;2022-12-10T13:46:28;3.20;99.90
4985;DHT22;2509;49.902;8.600;2022-12-10T13:49:35;3.20;99.90
4985;DHT22;2509;49.902;8.600;2022-12-10T13:52:53;3.10;99.90
4985;DHT22;2509;49.902;8.600;2022-12-10T13:56:05;3.10;99.90
4985;DHT22;2509;49.902;8.600;2022-12-10T13:59:17;3.10;99.90
4985;DHT22;2509;49.902;8.600;2022-12-10T14:02:36;3.00;99.90
4985;DHT22;2509;49.902;8.600;2022-12-10T14:05:59;3.00;99.90
4985;DHT22;2509;49.902;8.600;2022-12-10T14:09:11;3.10;99.90
4985;DHT22;2509;49.902;8.600;2022-12-10T14:12:16;3.10;99.90
4985;DHT22;2509;49.902;8.600;2022-12-10T14:15:20;3.10;99.90
4985;DHT22;2509;49.902;8.600;2022-12-10T14:18:23;3.10;99.90
4985;DHT22;2509;49.902;8.600;2022-12-10T14:21:27;3.10;99.90
4985;DHT22;2509;49.902;8.600;2022-12-10T14:24:36;3.10;99.90
4985;DHT22;2509;49.902;8.600;2022-12-10T14:27:38;3.00;99.90
4985;DHT22;2509;49.902;8.600;2022-12-10T14:30:43;3.00;99.90
4985;DHT22;2509;49.902;8.600;2022-12-10T14:33:48;3.00;99.90
4985;DHT22;2509;49.902;8.600;2022-12-10T14:36:52;3.00;99.90
4985;DHT22;2509;49.902;8.600;2022-12-10T14:39:56;3.10;99.90
4985;DHT22;2509;49.902;8.600;2022-12-10T14:43:03;3.10;99.90
4985;DHT22;2509;49.902;8.600;2022-12-10T14:46:13;3.10;99.90
4985;DHT22;2509;49.902;8.600;2022-12-10T14:49:17;3.10;99.90
4985;DHT22;2509;49.902;8.600;2022-12-10T14:52:22;3.10;99.90
4985;DHT22;2509;49.902;8.600;2022-12-10T14:55:27;3.00;99.90
4985;DHT22;2509;49.902;8.600;2022-12-10T14:58:35;3.00;99.90
4985;DHT22;2509;49.902;8.600;2022-12-10T15:01:40;2.90;99.90
4985;DHT22;2509;49.902;8.600;2022-12-10T15:04:44;2.90;99.90
4985;DHT22;2509;49.902;8.600;2022-12-10T15:07:53;2.90;99.90
4985;DHT22;2509;49.902;8.600;2022-12-10T15:10:58;2.80;99.90
4985;DHT22;2509;49.902;8.600;2022-12-10T15:14:02;2.80;99.90
4985;DHT22;2509;49.902;8.600;2022-12-10T15:17:38;2.70;99.90
4985;DHT22;2509;49.902;8.600;2022-12-10T15:20:46;2.70;99.90
4985;DHT22;2509;49.902;8.600;2022-12-10T15:23:49;2.70;99.90
4985;DHT22;2509;49.902;8.600;2022-12-10T15:26:52;2.60;99.90
4985;DHT22;2509;49.902;8.600;2022-12-10T15:29:54;2.50;99.90
4985;DHT22;2509;49.902;8.600;2022-12-10T15:32:56;2.50;99.90
4985;DHT22;2509;49.902;8.600;2022-12-10T15:35:59;2.40;99.90
4985;DHT22;2509;49.902;8.600;2022-12-10T15:39:03;2.40;99.90
4985;DHT22;2509;49.902;8.600;2022-12-10T15:42:07;2.30;99.90
4985;DHT22;2509;49.902;8.600;2022-12-10T15:45:17;2.20;99.90
4985;DHT22;2509;49.902;8.600;2022-12-10T15:48:20;2.20;99.90
4985;DHT22;2509;49.902;8.600;2022-12-10T15:51:22;2.10;99.90
4985;DHT22;2509;49.902;8.600;2022-12-10T15:54:31;2.10;99.90
4985;DHT22;2509;49.902;8.600;2022-12-10T15:57:36;2.10;99.90
4985;DHT22;2509;49.902;8.600;2022-12-10T16:00:39;2.00;99.90
4985;DHT22;2509;49.902;8.600;2022-12-10T16:03:44;2.00;99.90
4985;DHT22;2509;49.902;8.600;2022-12-10T16:06:45;2.00;99.90
4985;DHT22;2509;49.902;8.600;2022-12-10T16:09:47;2.00;99.90
4985;DHT22;2509;49.902;8.600;2022-12-10T16:12:58;2.00;99.90
4985;DHT22;2509;49.902;8.600;2022-12-10T16:16:04;1.90;99.90
4985;DHT22;2509;49.902;8.600;2022-12-10T16:19:09;1.90;99.90
4985;DHT22;2509;49.902;8.600;2022-12-10T16:22:11;1.90;99.90
4985;DHT22;2509;49.902;8.600;2022-12-10T16:25:14;1.80;99.90
4985;DHT22;2509;49.902;8.600;2022-12-10T16:28:19;1.80;99.90
4985;DHT22;2509;49.902;8.600;2022-12-10T16:31:21;1.70;99.90
4985;DHT22;2509;49.902;8.600;2022-12-10T16:34:23;1.70;99.90
4985;DHT22;2509;49.902;8.600;2022-12-10T16:37:25;1.60;99.90
4985;DHT22;2509;49.902;8.600;2022-12-10T16:40:28;1.50;99.90
4985;DHT22;2509;49.902;8.600;2022-12-10T16:43:31;1.50;99.90
4985;DHT22;2509;49.902;8.600;2022-12-10T16:46:33;1.40;99.90
4985;DHT22;2509;49.902;8.600;2022-12-10T16:49:35;1.40;99.90
4985;DHT22;2509;49.902;8.600;2022-12-10T16:52:37;1.30;99.90
4985;DHT22;2509;49.902;8.600;2022-12-10T16:55:39;1.20;99.90
4985;DHT22;2509;49.902;8.600;2022-12-10T16:58:42;1.20;99.90
4985;DHT22;2509;49.902;8.600;2022-12-10T17:01:44;1.20;99.90
4985;DHT22;2509;49.902;8.600;2022-12-10T17:04:46;1.10;99.90
4985;DHT22;2509;49.902;8.600;2022-12-10T17:07:48;1.10;99.90
4985;DHT22;2509;49.902;8.600;2022-12-10T17:10:51;1.10;99.90
4985;DHT22;2509;49.902;8.600;2022-12-10T17:14:22;1.00;99.90
4985;DHT22;2509;49.902;8.600;2022-12-10T17:17:24;1.00;99.90
4985;DHT22;2509;49.902;8.600;2022-12-10T17:20:26;1.00;99.90
4985;DHT22;2509;49.902;8.600;2022-12-10T17:23:27;0.90;99.90
4985;DHT22;2509;49.902;8.600;2022-12-10T17:26:31;0.90;99.90
4985;DHT22;2509;49.902;8.600;2022-12-10T17:29:37;0.90;99.90
4985;DHT22;2509;49.902;8.600;2022-12-10T17:32:41;0.80;99.90
4985;DHT22;2509;49.902;8.600;2022-12-10T17:35:44;0.80;99.90
4985;DHT22;2509;49.902;8.600;2022-12-10T17:38:47;0.70;99.90
4985;DHT22;2509;49.902;8.600;2022-12-10T17:41:49;0.70;99.90
4985;DHT22;2509;49.902;8.600;2022-12-10T17:44:52;0.70;99.90
4985;DHT22;2509;49.902;8.600;2022-12-10T17:47:56;0.60;99.90
4985;DHT22;2509;49.902;8.600;2022-12-10T17:50:57;0.60;99.90
4985;DHT22;2509;49.902;8.600;2022-12-10T17:53:59;0.60;99.90
4985;DHT22;2509;49.902;8.600;2022-12-10T17:57:01;0.60;99.90
4985;DHT22;2509;49.902;8.600;2022-12-10T18:00:10;0.60;99.90
4985;DHT22;2509;49.902;8.600;2022-12-10T18:03:13;0.60;99.90
4985;DHT22;2509;49.902;8.600;2022-12-10T18:06:17;0.50;99.90
4985;DHT22;2509;49.902;8.600;2022-12-10T18:09:20;0.50;99.90
4985;DHT22;2509;49.902;8.600;2022-12-10T18:12:22;0.40;99.90
4985;DHT22;2509;49.902;8.600;2022-12-10T18:15:26;0.40;99.90
4985;DHT22;2509;49.902;8.600;2022-12-10T18:18:29;0.40;99.90
4985;DHT22;2509;49.902;8.600;2022-12-10T18:21:31;0.40;99.90
4985;DHT22;2509;49.902;8.600;2022-12-10T18:24:32;0.40;99.90
4985;DHT22;2509;49.902;8.600;2022-12-10T18:27:34;0.30;99.90
4985;DHT22;2509;49.902;8.600;2022-12-10T18:30:38;0.30;99.90
4985;DHT22;2509;49.902;8.600;2022-12-10T18:33:42;0.20;99.90
4985;DHT22;2509;49.902;8.600;2022-12-10T18:36:45;0.20;99.90
4985;DHT22;2509;49.902;8.600;2022-12-10T18:39:47;0.10;99.90
4985;DHT22;2509;49.902;8.600;2022-12-10T18:42:49;0.10;99.90
4985;DHT22;2509;49.902;8.600;2022-12-10T18:45:53;0.00;99.90
4985;DHT22;2509;49.902;8.600;2022-12-10T18:48:55;0.00;99.90
4985;DHT22;2509;49.902;8.600;2022-12-10T18:51:56;-0.10;99.90
4985;DHT22;2509;49.902;8.600;2022-12-10T18:54:58;-0.10;99.90
4985;DHT22;2509;49.902;8.600;2022-12-10T18:58:00;-0.10;99.90
4985;DHT22;2509;49.902;8.600;2022-12-10T19:01:04;-0.10;99.90
4985;DHT22;2509;49.902;8.600;2022-12-10T19:04:07;-0.10;99.90
4985;DHT22;2509;49.902;8.600;2022-12-10T19:07:10;-0.20;99.90
4985;DHT22;2509;49.902;8.600;2022-12-10T19:10:14;-0.30;99.90
4985;DHT22;2509;49.902;8.600;2022-12-10T19:13:16;-0.30;99.90
4985;DHT22;2509;49.902;8.600;2022-12-10T19:16:22;-0.40;99.90
4985;DHT22;2509;49.902;8.600;2022-12-10T19:19:24;-0.40;99.90
4985;DHT22;2509;49.902;8.600;2022-12-10T19:22:25;-0.40;99.90
4985;DHT22;2509;49.902;8.600;2022-12-10T19:25:27;-0.50;99.90
4985;DHT22;2509;49.902;8.600;2022-12-10T19:28:29;-0.50;99.90
4985;DHT22;2509;49.902;8.600;2022-12-10T19:31:33;-0.50;99.90
4985;DHT22;2509;49.902;8.600;2022-12-10T19:34:34;-0.50;99.90
4985;DHT22;2509;49.902;8.600;2022-12-10T19:37:36;-0.50;99.90
4985;DHT22;2509;49.902;8.600;2022-12-10T19:40:39;-0.50;99.90
4985;DHT22;2509;49.902;8.600;2022-12-10T19:43:41;-0.60;99.90
4985;DHT22;2509;49.902;8.600;2022-12-10T19:46:45;-0.60;99.90
4985;DHT22;2509;49.902;8.600;2022-12-10T19:49:47;-0.60;99.90
4985;DHT22;2509;49.902;8.600;2022-12-10T19:52:49;-0.70;99.90
4985;DHT22;2509;49.902;8.600;2022-12-10T19:55:51;-0.70;99.90
4985;DHT22;2509;49.902;8.600;2022-12-10T19:58:55;-0.70;99.90
4985;DHT22;2509;49.902;8.600;2022-12-10T20:01:58;-0.70;99.90
4985;DHT22;2509;49.902;8.600;2022-12-10T20:05:00;-0.80;99.90
4985;DHT22;2509;49.902;8.600;2022-12-10T20:08:01;-0.80;99.90
4985;DHT22;2509;49.902;8.600;2022-12-10T20:11:05;-0.80;99.90
4985;DHT22;2509;49.902;8.600;2022-12-10T20:14:07;-0.90;99.90
4985;DHT22;2509;49.902;8.600;2022-12-10T20:17:11;-0.90;99.90
4985;DHT22;2509;49.902;8.600;2022-12-10T20:20:20;-0.90;99.90
4985;DHT22;2509;49.902;8.600;2022-12-10T20:23:22;-0.90;99.90
4985;DHT22;2509;49.902;8.600;2022-12-10T20:26:28;-1.00;99.90
4985;DHT22;2509;49.902;8.600;2022-12-10T20:29:30;-1.00;99.90
4985;DHT22;2509;49.902;8.600;2022-12-10T20:32:33;-1.10;99.90